createdAt,value
2022-11-29T00:00:19.273Z,20
2022-11-29T00:01:19.273Z,20
2022-11-29T00:02:19.245Z,20
2022-11-29T00:03:19.239Z,20
2022-11-29T00:04:19.227Z,20
2022-11-29T00:05:19.224Z,20
2022-11-29T00:06:19.209Z,20
2022-11-29T00:07:19.201Z,20
2022-11-29T00:08:19.255Z,20
2022-11-29T00:09:19.175Z,20
2022-11-29T00:10:19.165Z,20
2022-11-29T00:11:19.166Z,20
2022-11-29T00:12:19.159Z,20
2022-11-29T00:13:19.141Z,20
2022-11-29T00:14:19.150Z,20
2022-11-29T00:15:19.113Z,20
2022-11-29T00:16:19.103Z,20
2022-11-29T00:17:19.092Z,20
2022-11-29T00:18:19.087Z,20
2022-11-29T00:19:19.073Z,20
2022-11-29T00:20:19.065Z,20
2022-11-29T00:21:19.063Z,20
2022-11-29T00:22:19.037Z,20
2022-11-29T00:23:19.039Z,20
2022-11-29T00:24:19.024Z,20
2022-11-29T00:25:19.044Z,20
2022-11-29T00:26:18.994Z,20
2022-11-29T00:27:18.989Z,20
2022-11-29T00:28:18.977Z,20
2022-11-29T00:29:18.962Z,20
2022-11-29T00:30:18.962Z,20
2022-11-29T00:31:18.942Z,20
2022-11-29T00:32:18.931Z,20
2022-11-29T00:33:18.976Z,20
2022-11-29T00:34:18.959Z,20
2022-11-29T00:35:18.969Z,20
2022-11-29T00:36:18.890Z,20
2022-11-29T00:37:18.888Z,20
2022-11-29T00:38:18.884Z,20
2022-11-29T00:39:18.859Z,20
2022-11-29T00:40:18.862Z,20
2022-11-29T00:41:18.841Z,20
2022-11-29T00:42:18.834Z,20
2022-11-29T00:43:18.854Z,20
2022-11-29T00:44:18.803Z,20
2022-11-29T00:45:18.800Z,20
2022-11-29T00:46:18.827Z,20
2022-11-29T00:47:18.790Z,20
2022-11-29T00:48:18.774Z,20
2022-11-29T00:49:18.776Z,20
2022-11-29T00:50:18.746Z,20
2022-11-29T00:51:18.737Z,20
2022-11-29T00:52:18.723Z,20
2022-11-29T00:53:18.710Z,20
2022-11-29T00:54:18.704Z,20
2022-11-29T00:55:18.694Z,20
2022-11-29T00:56:18.680Z,20
2022-11-29T00:57:18.674Z,20
2022-11-29T00:58:18.671Z,20
2022-11-29T00:59:18.667Z,20
2022-11-29T01:00:18.639Z,20
2022-11-29T01:01:18.632Z,20
2022-11-29T01:02:18.623Z,20
2022-11-29T01:03:18.617Z,20
2022-11-29T01:04:18.597Z,20
2022-11-29T01:05:18.590Z,20
2022-11-29T01:06:18.577Z,20
2022-11-29T01:07:18.568Z,20
2022-11-29T01:08:18.557Z,20
2022-11-29T01:09:18.550Z,20
2022-11-29T01:10:18.540Z,20
2022-11-29T01:11:18.535Z,20
2022-11-29T01:12:18.512Z,20
2022-11-29T01:13:18.498Z,20
2022-11-29T01:14:18.497Z,20
2022-11-29T01:15:18.486Z,20
2022-11-29T01:16:18.488Z,20
2022-11-29T01:17:18.459Z,20
2022-11-29T01:18:18.454Z,20
2022-11-29T01:19:18.455Z,20
2022-11-29T01:20:18.429Z,20
2022-11-29T01:21:18.421Z,20
2022-11-29T01:22:18.416Z,20
2022-11-29T01:23:18.403Z,20
2022-11-29T01:24:18.383Z,20
2022-11-29T01:25:18.394Z,20
2022-11-29T01:26:18.363Z,20
2022-11-29T01:27:18.354Z,20
2022-11-29T01:28:18.341Z,20
2022-11-29T01:29:18.332Z,20
2022-11-29T01:30:18.319Z,20
2022-11-29T01:31:18.318Z,20
2022-11-29T01:32:18.306Z,20
2022-11-29T01:33:18.291Z,20
2022-11-29T01:34:18.282Z,20
2022-11-29T01:35:18.272Z,20
2022-11-29T01:36:18.256Z,20
2022-11-29T01:37:18.256Z,20
2022-11-29T01:38:18.237Z,20
2022-11-29T01:39:18.230Z,20
2022-11-29T01:40:18.218Z,20
2022-11-29T01:41:18.202Z,20
2022-11-29T01:42:18.194Z,20
2022-11-29T01:43:18.186Z,20
2022-11-29T01:44:18.183Z,20
2022-11-29T01:45:18.168Z,20
2022-11-29T01:46:18.156Z,20
2022-11-29T01:47:18.168Z,20
2022-11-29T01:48:18.176Z,20
2022-11-29T01:49:18.122Z,20
2022-11-29T01:50:18.109Z,20
2022-11-29T01:51:18.098Z,20
2022-11-29T01:52:18.095Z,20
2022-11-29T01:53:18.078Z,20
2022-11-29T01:54:18.070Z,20
2022-11-29T01:55:18.056Z,20
2022-11-29T01:56:18.044Z,20
2022-11-29T01:57:18.034Z,20
2022-11-29T01:58:18.028Z,20
2022-11-29T01:59:18.015Z,20
2022-11-29T02:00:18.010Z,20
2022-11-29T02:01:17.995Z,20
2022-11-29T02:02:17.984Z,20
2022-11-29T02:03:17.975Z,20
2022-11-29T02:04:17.969Z,20
2022-11-29T02:05:17.954Z,20
2022-11-29T02:06:17.945Z,20
2022-11-29T02:07:17.974Z,20
2022-11-29T02:08:17.963Z,20
2022-11-29T02:09:17.916Z,20
2022-11-29T02:10:17.896Z,20
2022-11-29T02:11:17.987Z,20
2022-11-29T02:12:17.876Z,20
2022-11-29T02:13:17.869Z,20
2022-11-29T02:14:17.853Z,20
2022-11-29T02:15:17.857Z,20
2022-11-29T02:16:17.850Z,20
2022-11-29T02:17:17.833Z,20
2022-11-29T02:18:17.817Z,20
2022-11-29T02:19:17.812Z,20
2022-11-29T02:20:17.803Z,20
2022-11-29T02:21:17.808Z,20
2022-11-29T02:22:17.771Z,16
2022-11-29T02:23:17.768Z,20
2022-11-29T02:24:17.755Z,20
2022-11-29T02:25:17.746Z,20
2022-11-29T02:26:17.735Z,20
2022-11-29T02:27:17.724Z,20
2022-11-29T02:28:17.711Z,20
2022-11-29T02:29:17.698Z,20
2022-11-29T02:30:17.686Z,20
2022-11-29T02:31:17.710Z,20
2022-11-29T02:32:17.670Z,20
2022-11-29T02:33:17.670Z,20
2022-11-29T02:34:17.649Z,20
2022-11-29T02:35:17.645Z,20
2022-11-29T02:36:17.630Z,20
2022-11-29T02:37:17.631Z,20
2022-11-29T02:38:17.624Z,20
2022-11-29T02:39:17.592Z,20
2022-11-29T02:40:17.584Z,20
2022-11-29T02:41:17.571Z,20
2022-11-29T02:42:17.575Z,20
2022-11-29T02:43:17.563Z,20
2022-11-29T02:44:17.539Z,20
2022-11-29T02:45:17.530Z,20
2022-11-29T02:46:17.559Z,20
2022-11-29T02:47:17.507Z,20
2022-11-29T02:48:17.608Z,20
2022-11-29T02:49:17.531Z,20
2022-11-29T02:50:17.510Z,20
2022-11-29T02:51:17.478Z,20
2022-11-29T02:52:17.457Z,20
2022-11-29T02:53:17.447Z,20
2022-11-29T02:54:17.439Z,20
2022-11-29T02:55:17.426Z,20
2022-11-29T02:56:17.419Z,20
2022-11-29T02:57:17.413Z,20
2022-11-29T02:58:17.402Z,20
2022-11-29T02:59:17.387Z,20
2022-11-29T03:00:17.374Z,20
2022-11-29T03:01:17.361Z,20
2022-11-29T03:02:17.350Z,20
2022-11-29T03:03:17.343Z,20
2022-11-29T03:04:17.330Z,20
2022-11-29T03:05:17.335Z,20
2022-11-29T03:06:17.314Z,20
2022-11-29T03:07:17.303Z,20
2022-11-29T03:08:17.291Z,20
2022-11-29T03:09:17.280Z,20
2022-11-29T03:10:17.273Z,20
2022-11-29T03:11:17.259Z,20
2022-11-29T03:12:17.255Z,20
2022-11-29T03:13:17.243Z,20
2022-11-29T03:14:17.228Z,20
2022-11-29T03:15:17.215Z,20
2022-11-29T03:16:17.204Z,20
2022-11-29T03:17:17.199Z,20
2022-11-29T03:18:17.195Z,20
2022-11-29T03:19:17.177Z,20
2022-11-29T03:20:17.165Z,20
2022-11-29T03:21:17.150Z,20
2022-11-29T03:22:17.136Z,20
2022-11-29T03:23:17.135Z,20
2022-11-29T03:24:17.125Z,20
2022-11-29T03:25:17.122Z,20
2022-11-29T03:26:17.123Z,20
2022-11-29T03:27:17.100Z,20
2022-11-29T03:28:17.092Z,20
2022-11-29T03:29:17.166Z,20
2022-11-29T03:30:17.056Z,20
2022-11-29T03:31:17.044Z,20
2022-11-29T03:32:17.043Z,20
2022-11-29T03:33:17.034Z,20
2022-11-29T03:34:17.018Z,20
2022-11-29T03:35:17.005Z,20
2022-11-29T03:36:17.031Z,20
2022-11-29T03:37:16.990Z,20
2022-11-29T03:38:16.972Z,20
2022-11-29T03:39:16.986Z,16
2022-11-29T03:40:16.957Z,20
2022-11-29T03:41:16.957Z,20
2022-11-29T03:42:16.931Z,20
2022-11-29T03:43:16.923Z,20
2022-11-29T03:44:16.917Z,20
2022-11-29T03:45:16.902Z,20
2022-11-29T03:46:16.890Z,20
2022-11-29T03:47:16.906Z,20
2022-11-29T03:48:16.873Z,20
2022-11-29T03:49:16.853Z,20
2022-11-29T03:50:16.843Z,20
2022-11-29T03:51:16.836Z,20
2022-11-29T03:52:16.828Z,20
2022-11-29T03:53:16.817Z,20
2022-11-29T03:54:16.800Z,20
2022-11-29T03:55:16.827Z,20
2022-11-29T03:56:16.794Z,20
2022-11-29T03:57:16.772Z,20
2022-11-29T03:58:16.769Z,20
2022-11-29T03:59:16.762Z,20
2022-11-29T04:00:16.756Z,16
2022-11-29T04:01:16.745Z,24
2022-11-29T04:02:16.722Z,24
2022-11-29T04:03:16.712Z,24
2022-11-29T04:04:16.697Z,24
2022-11-29T04:05:16.690Z,24
2022-11-29T04:06:16.680Z,24
2022-11-29T04:07:16.668Z,24
2022-11-29T04:08:16.653Z,24
2022-11-29T04:09:16.648Z,24
2022-11-29T04:10:16.637Z,24
2022-11-29T04:11:16.639Z,24
2022-11-29T04:12:16.611Z,24
2022-11-29T04:13:16.615Z,24
2022-11-29T04:14:16.596Z,24
2022-11-29T04:15:16.611Z,24
2022-11-29T04:16:16.577Z,24
2022-11-29T04:17:16.582Z,24
2022-11-29T04:18:16.558Z,24
2022-11-29T04:19:16.539Z,24
2022-11-29T04:20:16.531Z,24
2022-11-29T04:21:16.523Z,24
2022-11-29T04:22:16.529Z,24
2022-11-29T04:23:16.509Z,24
2022-11-29T04:24:16.489Z,24
2022-11-29T04:25:16.475Z,24
2022-11-29T04:26:16.466Z,24
2022-11-29T04:27:16.451Z,24
2022-11-29T04:28:16.450Z,24
2022-11-29T04:29:16.435Z,24
2022-11-29T04:30:16.423Z,24
2022-11-29T04:31:16.414Z,24
2022-11-29T04:32:16.405Z,24
2022-11-29T04:33:16.397Z,24
2022-11-29T04:34:16.386Z,24
2022-11-29T04:35:16.386Z,24
2022-11-29T04:36:16.370Z,24
2022-11-29T04:37:16.346Z,24
2022-11-29T04:38:16.351Z,24
2022-11-29T04:39:16.332Z,24
2022-11-29T04:40:16.337Z,24
2022-11-29T04:41:16.309Z,24
2022-11-29T04:42:16.308Z,24
2022-11-29T04:43:16.290Z,24
2022-11-29T04:44:16.273Z,24
2022-11-29T04:45:16.269Z,24
2022-11-29T04:46:16.266Z,24
2022-11-29T04:47:16.254Z,24
2022-11-29T04:48:16.233Z,24
2022-11-29T04:49:16.225Z,24
2022-11-29T04:50:16.211Z,24
2022-11-29T04:51:16.213Z,24
2022-11-29T04:52:16.192Z,24
2022-11-29T04:53:16.187Z,24
2022-11-29T04:54:16.176Z,24
2022-11-29T04:55:16.164Z,24
2022-11-29T04:56:16.148Z,24
2022-11-29T04:57:16.140Z,24
2022-11-29T04:58:16.152Z,24
2022-11-29T04:59:16.137Z,24
2022-11-29T05:00:16.110Z,24
2022-11-29T05:01:16.096Z,24
2022-11-29T05:02:16.095Z,24
2022-11-29T05:03:16.071Z,24
2022-11-29T05:04:16.061Z,24
2022-11-29T05:05:16.061Z,24
2022-11-29T05:06:16.043Z,24
2022-11-29T05:07:16.034Z,24
2022-11-29T05:08:16.045Z,28
2022-11-29T05:09:16.016Z,24
2022-11-29T05:10:16.012Z,24
2022-11-29T05:11:15.992Z,24
2022-11-29T05:12:15.990Z,24
2022-11-29T05:13:15.976Z,24
2022-11-29T05:14:15.965Z,24
2022-11-29T05:15:15.952Z,24
2022-11-29T05:16:15.949Z,24
2022-11-29T05:17:15.929Z,24
2022-11-29T05:18:15.931Z,24
2022-11-29T05:19:15.905Z,24
2022-11-29T05:20:15.896Z,24
2022-11-29T05:21:15.901Z,24
2022-11-29T05:22:15.897Z,24
2022-11-29T05:23:15.871Z,24
2022-11-29T05:24:15.863Z,24
2022-11-29T05:25:15.852Z,24
2022-11-29T05:26:15.839Z,24
2022-11-29T05:27:15.827Z,20
2022-11-29T05:28:15.811Z,24
2022-11-29T05:29:15.807Z,24
2022-11-29T05:30:15.787Z,24
2022-11-29T05:31:15.787Z,24
2022-11-29T05:32:15.787Z,24
2022-11-29T05:33:15.764Z,24
2022-11-29T05:34:15.754Z,24
2022-11-29T05:35:15.738Z,24
2022-11-29T05:36:15.748Z,24
2022-11-29T05:37:15.718Z,24
2022-11-29T05:38:15.708Z,24
2022-11-29T05:39:15.699Z,24
2022-11-29T05:40:15.686Z,24
2022-11-29T05:41:15.681Z,24
2022-11-29T05:42:15.664Z,24
2022-11-29T05:43:15.679Z,24
2022-11-29T05:44:15.652Z,24
2022-11-29T05:45:15.655Z,24
2022-11-29T05:46:15.623Z,24
2022-11-29T05:47:15.613Z,24
2022-11-29T05:48:15.603Z,24
2022-11-29T05:49:15.591Z,24
2022-11-29T05:50:15.586Z,24
2022-11-29T05:51:15.599Z,24
2022-11-29T05:52:15.563Z,24
2022-11-29T05:53:15.551Z,24
2022-11-29T05:54:15.543Z,24
2022-11-29T05:55:15.529Z,24
2022-11-29T05:56:15.525Z,24
2022-11-29T05:57:15.523Z,24
2022-11-29T05:58:15.499Z,24
2022-11-29T05:59:15.486Z,24
2022-11-29T06:00:15.528Z,24
2022-11-29T06:01:15.516Z,24
2022-11-29T06:02:16.548Z,24
2022-11-29T06:03:15.542Z,24
2022-11-29T06:04:15.517Z,24
2022-11-29T06:05:15.423Z,24
2022-11-29T06:06:15.683Z,24
2022-11-29T06:07:15.429Z,24
2022-11-29T06:08:16.478Z,24
2022-11-29T06:09:15.456Z,24
2022-11-29T06:10:16.505Z,24
2022-11-29T06:11:15.475Z,24
2022-11-29T06:12:15.474Z,24
2022-11-29T06:13:15.358Z,24
2022-11-29T06:14:15.357Z,24
2022-11-29T06:15:15.314Z,24
2022-11-29T06:16:15.400Z,24
2022-11-29T06:17:15.298Z,24
2022-11-29T06:18:15.308Z,24
2022-11-29T06:19:15.288Z,24
2022-11-29T06:20:15.264Z,24
2022-11-29T06:21:15.259Z,24
2022-11-29T06:22:15.244Z,24
2022-11-29T06:23:15.235Z,24
2022-11-29T06:24:15.230Z,24
2022-11-29T06:25:15.209Z,24
2022-11-29T06:26:15.199Z,24
2022-11-29T06:27:15.188Z,24
2022-11-29T06:28:15.182Z,24
2022-11-29T06:29:15.166Z,24
2022-11-29T06:30:15.161Z,24
2022-11-29T06:31:15.164Z,24
2022-11-29T06:32:15.147Z,24
2022-11-29T06:33:15.130Z,24
2022-11-29T06:34:15.117Z,24
2022-11-29T06:35:15.102Z,24
2022-11-29T06:36:15.108Z,24
2022-11-29T06:37:15.088Z,24
2022-11-29T06:38:15.086Z,24
2022-11-29T06:39:15.080Z,24
2022-11-29T06:40:15.074Z,24
2022-11-29T06:41:15.045Z,24
2022-11-29T06:42:15.077Z,28
2022-11-29T06:43:15.035Z,28
2022-11-29T06:44:15.065Z,28
2022-11-29T06:45:15.006Z,28
2022-11-29T06:46:15.166Z,28
2022-11-29T06:47:15.114Z,28
2022-11-29T06:48:16.088Z,24
2022-11-29T06:49:15.956Z,28
2022-11-29T06:50:14.943Z,28
2022-11-29T06:51:14.937Z,28
2022-11-29T06:52:14.923Z,28
2022-11-29T06:53:14.918Z,32
2022-11-29T06:54:15.103Z,24
2022-11-29T06:55:14.891Z,24
2022-11-29T06:56:14.883Z,28
2022-11-29T06:57:14.875Z,28
2022-11-29T06:58:14.864Z,28
2022-11-29T06:59:14.850Z,32
2022-11-29T07:00:14.841Z,32
2022-11-29T07:01:14.829Z,32
2022-11-29T07:02:14.820Z,32
2022-11-29T07:03:14.809Z,36
2022-11-29T07:04:14.796Z,36
2022-11-29T07:05:14.788Z,40
2022-11-29T07:06:14.778Z,40
2022-11-29T07:07:14.763Z,48
2022-11-29T07:08:14.764Z,40
2022-11-29T07:09:14.744Z,32
2022-11-29T07:10:14.730Z,36
2022-11-29T07:11:14.724Z,40
2022-11-29T07:12:14.718Z,40
2022-11-29T07:13:14.699Z,40
2022-11-29T07:14:14.692Z,44
2022-11-29T07:15:14.692Z,48
2022-11-29T07:16:14.686Z,52
2022-11-29T07:17:14.714Z,52
2022-11-29T07:18:14.647Z,56
2022-11-29T07:19:14.637Z,60
2022-11-29T07:20:14.630Z,60
2022-11-29T07:21:14.618Z,64
2022-11-29T07:22:14.611Z,64
2022-11-29T07:23:14.599Z,68
2022-11-29T07:24:14.583Z,68
2022-11-29T07:25:14.578Z,68
2022-11-29T07:26:14.592Z,72
2022-11-29T07:27:14.557Z,76
2022-11-29T07:28:14.544Z,76
2022-11-29T07:29:14.538Z,80
2022-11-29T07:30:14.526Z,84
2022-11-29T07:31:14.509Z,92
2022-11-29T07:32:14.506Z,100
2022-11-29T07:33:14.492Z,100
2022-11-29T07:34:14.482Z,104
2022-11-29T07:35:14.473Z,112
2022-11-29T07:36:14.461Z,116
2022-11-29T07:37:14.470Z,120
2022-11-29T07:38:14.475Z,128
2022-11-29T07:39:14.431Z,132
2022-11-29T07:40:14.418Z,132
2022-11-29T07:41:14.416Z,136
2022-11-29T07:42:14.392Z,140
2022-11-29T07:43:14.387Z,144
2022-11-29T07:44:14.372Z,148
2022-11-29T07:45:14.370Z,156
2022-11-29T07:46:14.366Z,168
2022-11-29T07:47:14.350Z,172
2022-11-29T07:48:14.332Z,172
2022-11-29T07:49:14.321Z,184
2022-11-29T07:50:14.314Z,200
2022-11-29T07:51:14.302Z,220
2022-11-29T07:52:14.291Z,236
2022-11-29T07:53:14.282Z,236
2022-11-29T07:54:14.273Z,252
2022-11-29T07:55:14.255Z,260
2022-11-29T07:56:14.252Z,260
2022-11-29T07:57:14.241Z,272
2022-11-29T07:58:14.227Z,280
2022-11-29T07:59:14.218Z,292
2022-11-29T08:00:14.207Z,292
2022-11-29T08:01:14.194Z,300
2022-11-29T08:02:14.185Z,304
2022-11-29T08:03:14.175Z,308
2022-11-29T08:04:14.167Z,316
2022-11-29T08:05:14.155Z,324
2022-11-29T08:06:14.146Z,336
2022-11-29T08:07:14.135Z,348
2022-11-29T08:08:14.123Z,344
2022-11-29T08:09:14.122Z,340
2022-11-29T08:10:14.099Z,336
2022-11-29T08:11:14.092Z,328
2022-11-29T08:12:14.084Z,324
2022-11-29T08:13:14.071Z,312
2022-11-29T08:14:14.061Z,300
2022-11-29T08:15:14.059Z,292
2022-11-29T08:16:14.040Z,288
2022-11-29T08:17:14.062Z,292
2022-11-29T08:18:14.061Z,300
2022-11-29T08:19:14.008Z,316
2022-11-29T08:20:13.995Z,332
2022-11-29T08:21:13.990Z,348
2022-11-29T08:22:13.984Z,356
2022-11-29T08:23:13.968Z,364
2022-11-29T08:24:13.951Z,376
2022-11-29T08:25:13.943Z,372
2022-11-29T08:26:13.931Z,380
2022-11-29T08:27:13.921Z,380
2022-11-29T08:28:13.925Z,384
2022-11-29T08:29:13.902Z,396
2022-11-29T08:30:13.895Z,412
2022-11-29T08:31:13.880Z,424
2022-11-29T08:32:13.870Z,436
2022-11-29T08:33:13.860Z,436
2022-11-29T08:34:13.855Z,436
2022-11-29T08:35:13.839Z,432
2022-11-29T08:36:13.830Z,424
2022-11-29T08:37:13.820Z,432
2022-11-29T08:38:13.805Z,448
2022-11-29T08:39:13.796Z,472
2022-11-29T08:40:13.786Z,492
2022-11-29T08:41:13.786Z,500
2022-11-29T08:42:13.764Z,492
2022-11-29T08:43:13.754Z,480
2022-11-29T08:44:13.741Z,480
2022-11-29T08:45:13.738Z,472
2022-11-29T08:46:13.728Z,472
2022-11-29T08:47:13.722Z,472
2022-11-29T08:48:13.706Z,480
2022-11-29T08:49:13.688Z,500
2022-11-29T08:50:13.692Z,508
2022-11-29T08:51:13.674Z,512
2022-11-29T08:52:13.659Z,532
2022-11-29T08:53:13.647Z,560
2022-11-29T08:54:13.641Z,588
2022-11-29T08:55:13.626Z,608
2022-11-29T08:56:13.616Z,628
2022-11-29T08:57:13.603Z,640
2022-11-29T08:58:13.592Z,652
2022-11-29T08:59:13.582Z,660
2022-11-29T09:00:13.574Z,668
2022-11-29T09:01:13.568Z,676
2022-11-29T09:02:13.549Z,692
2022-11-29T09:03:13.541Z,720
2022-11-29T09:04:13.528Z,752
2022-11-29T09:05:13.524Z,804
2022-11-29T09:06:13.507Z,848
2022-11-29T09:07:13.502Z,888
2022-11-29T09:08:13.513Z,904
2022-11-29T09:09:13.528Z,916
2022-11-29T09:10:13.473Z,924
2022-11-29T09:11:13.460Z,924
2022-11-29T09:12:13.461Z,912
2022-11-29T09:13:13.434Z,928
2022-11-29T09:14:13.431Z,960
2022-11-29T09:15:13.438Z,992
2022-11-29T09:16:13.403Z,1020
2022-11-29T09:17:13.391Z,1032
2022-11-29T09:18:13.386Z,1044
2022-11-29T09:19:13.376Z,1056
2022-11-29T09:20:13.363Z,1056
2022-11-29T09:21:13.352Z,1088
2022-11-29T09:22:14.371Z,1060
2022-11-29T09:23:13.338Z,1056
2022-11-29T09:24:13.321Z,1044
2022-11-29T09:25:13.319Z,1040
2022-11-29T09:26:13.346Z,1020
2022-11-29T09:27:13.289Z,1008
2022-11-29T09:28:13.280Z,1012
2022-11-29T09:29:13.266Z,1020
2022-11-29T09:30:13.256Z,1020
2022-11-29T09:31:13.272Z,1020
2022-11-29T09:32:13.242Z,1020
2022-11-29T09:33:13.225Z,1032
2022-11-29T09:34:13.226Z,1048
2022-11-29T09:35:13.201Z,1072
2022-11-29T09:36:13.194Z,1100
2022-11-29T09:37:13.187Z,1132
2022-11-29T09:38:13.182Z,1148
2022-11-29T09:39:13.180Z,1132
2022-11-29T09:40:13.152Z,1116
2022-11-29T09:41:13.139Z,1088
2022-11-29T09:42:13.125Z,1052
2022-11-29T09:43:13.119Z,1020
2022-11-29T09:44:13.112Z,1000
2022-11-29T09:45:13.095Z,988
2022-11-29T09:46:13.097Z,1012
2022-11-29T09:47:13.087Z,1048
2022-11-29T09:48:13.073Z,1068
2022-11-29T09:49:13.059Z,1068
2022-11-29T09:50:13.068Z,1044
2022-11-29T09:51:13.037Z,1020
2022-11-29T09:52:13.027Z,1000
2022-11-29T09:53:13.014Z,968
2022-11-29T09:54:13.001Z,928
2022-11-29T09:55:12.991Z,920
2022-11-29T09:56:12.984Z,940
2022-11-29T09:57:12.975Z,972
2022-11-29T09:58:12.958Z,996
2022-11-29T09:59:12.950Z,988
2022-11-29T10:00:12.933Z,940
2022-11-29T10:01:12.969Z,916
2022-11-29T10:02:12.919Z,896
2022-11-29T10:03:12.903Z,880
2022-11-29T10:04:12.921Z,864
2022-11-29T10:05:12.885Z,872
2022-11-29T10:06:12.906Z,848
2022-11-29T10:07:12.864Z,844
2022-11-29T10:08:12.851Z,848
2022-11-29T10:09:12.839Z,868
2022-11-29T10:10:12.825Z,880
2022-11-29T10:11:12.872Z,864
2022-11-29T10:12:12.807Z,848
2022-11-29T10:13:12.802Z,884
2022-11-29T10:14:13.798Z,908
2022-11-29T10:15:12.774Z,956
2022-11-29T10:16:12.797Z,988
2022-11-29T10:17:12.752Z,1008
2022-11-29T10:18:12.749Z,1004
2022-11-29T10:19:12.735Z,1016
2022-11-29T10:20:12.721Z,1036
2022-11-29T10:21:12.716Z,1080
2022-11-29T10:22:12.704Z,1128
2022-11-29T10:23:13.201Z,1148
2022-11-29T10:24:12.681Z,1136
2022-11-29T10:25:12.672Z,1116
2022-11-29T10:26:12.665Z,1108
2022-11-29T10:27:12.668Z,1120
2022-11-29T10:28:12.642Z,1152
2022-11-29T10:29:12.626Z,1184
2022-11-29T10:30:12.622Z,1204
2022-11-29T10:31:12.639Z,1188
2022-11-29T10:32:12.597Z,1160
2022-11-29T10:33:12.585Z,1144
2022-11-29T10:34:12.575Z,1132
2022-11-29T10:35:12.577Z,1136
2022-11-29T10:36:12.555Z,1128
2022-11-29T10:37:12.542Z,1092
2022-11-29T10:38:12.533Z,1032
2022-11-29T10:39:12.541Z,972
2022-11-29T10:40:12.512Z,936
2022-11-29T10:41:12.500Z,916
2022-11-29T10:42:12.498Z,940
2022-11-29T10:43:12.481Z,880
2022-11-29T10:44:12.475Z,876
2022-11-29T10:45:12.511Z,876
2022-11-29T10:46:12.454Z,888
2022-11-29T10:47:12.442Z,912
2022-11-29T10:48:12.448Z,936
2022-11-29T10:49:12.427Z,968
2022-11-29T10:50:12.407Z,980
2022-11-29T10:51:12.394Z,972
2022-11-29T10:52:12.385Z,956
2022-11-29T10:53:12.377Z,992
2022-11-29T10:54:12.367Z,928
2022-11-29T10:55:12.356Z,916
2022-11-29T10:56:12.351Z,920
2022-11-29T10:57:12.336Z,916
2022-11-29T10:58:12.324Z,924
2022-11-29T10:59:12.316Z,948
2022-11-29T11:00:12.309Z,988
2022-11-29T11:01:12.300Z,1056
2022-11-29T11:02:12.278Z,1132
2022-11-29T11:03:12.275Z,1272
2022-11-29T11:04:12.257Z,1240
2022-11-29T11:05:12.251Z,1280
2022-11-29T11:06:12.268Z,1300
2022-11-29T11:07:12.226Z,1304
2022-11-29T11:08:12.218Z,1332
2022-11-29T11:09:12.205Z,1340
2022-11-29T11:10:12.196Z,1344
2022-11-29T11:11:12.192Z,1292
2022-11-29T11:12:12.187Z,1236
2022-11-29T11:13:12.165Z,1164
2022-11-29T11:14:12.155Z,1084
2022-11-29T11:15:12.146Z,976
2022-11-29T11:16:12.131Z,884
2022-11-29T11:17:12.123Z,836
2022-11-29T11:18:12.124Z,828
2022-11-29T11:19:12.098Z,824
2022-11-29T11:20:12.098Z,844
2022-11-29T11:21:12.082Z,868
2022-11-29T11:22:12.162Z,872
2022-11-29T11:23:12.061Z,864
2022-11-29T11:24:12.047Z,872
2022-11-29T11:25:12.042Z,900
2022-11-29T11:26:12.035Z,928
2022-11-29T11:27:12.014Z,956
2022-11-29T11:28:12.007Z,992
2022-11-29T11:29:11.998Z,1004
2022-11-29T11:30:11.987Z,976
2022-11-29T11:31:12.003Z,948
2022-11-29T11:32:11.967Z,968
2022-11-29T11:33:11.958Z,1032
2022-11-29T11:34:11.953Z,1100
2022-11-29T11:35:11.939Z,1120
2022-11-29T11:36:11.933Z,1088
2022-11-29T11:37:11.912Z,1060
2022-11-29T11:38:11.899Z,1068
2022-11-29T11:39:11.916Z,1068
2022-11-29T11:40:11.885Z,1040
2022-11-29T11:41:11.871Z,1000
2022-11-29T11:42:11.864Z,1032
2022-11-29T11:43:11.848Z,1096
2022-11-29T11:44:11.837Z,1152
2022-11-29T11:45:11.832Z,1244
2022-11-29T11:46:11.825Z,1348
2022-11-29T11:47:11.816Z,1416
2022-11-29T11:48:11.798Z,1424
2022-11-29T11:49:11.921Z,1356
2022-11-29T11:50:11.782Z,1288
2022-11-29T11:51:11.765Z,1216
2022-11-29T11:52:11.761Z,1116
2022-11-29T11:53:11.746Z,1064
2022-11-29T11:54:11.732Z,1072
2022-11-29T11:55:11.726Z,1100
2022-11-29T11:56:11.713Z,1160
2022-11-29T11:57:11.708Z,1220
2022-11-29T11:58:11.702Z,1252
2022-11-29T11:59:11.703Z,1292
2022-11-29T12:00:11.671Z,1296
2022-11-29T12:01:11.679Z,1188
2022-11-29T12:02:11.656Z,992
2022-11-29T12:03:11.638Z,860
2022-11-29T12:04:11.631Z,868
2022-11-29T12:05:11.651Z,972
2022-11-29T12:06:11.667Z,1008
2022-11-29T12:07:11.627Z,960
2022-11-29T12:08:11.586Z,916
2022-11-29T12:09:11.579Z,956
2022-11-29T12:10:11.561Z,948
2022-11-29T12:11:11.559Z,944
2022-11-29T12:12:11.544Z,964
2022-11-29T12:13:11.554Z,1020
2022-11-29T12:14:11.522Z,1016
2022-11-29T12:15:11.513Z,912
2022-11-29T12:16:11.506Z,852
2022-11-29T12:17:11.490Z,868
2022-11-29T12:18:11.486Z,920
2022-11-29T12:19:11.496Z,984
2022-11-29T12:20:11.460Z,980
2022-11-29T12:21:11.446Z,936
2022-11-29T12:22:11.449Z,940
2022-11-29T12:23:11.427Z,996
2022-11-29T12:24:11.422Z,1076
2022-11-29T12:25:11.427Z,1132
2022-11-29T12:26:11.396Z,1164
2022-11-29T12:27:11.397Z,1164
2022-11-29T12:28:11.396Z,1160
2022-11-29T12:29:11.361Z,1132
2022-11-29T12:30:11.347Z,1048
2022-11-29T12:31:11.336Z,1004
2022-11-29T12:32:11.335Z,1008
2022-11-29T12:33:11.322Z,1004
2022-11-29T12:34:11.354Z,1052
2022-11-29T12:35:11.342Z,1136
2022-11-29T12:36:11.284Z,1172
2022-11-29T12:37:11.276Z,1172
2022-11-29T12:38:11.268Z,1128
2022-11-29T12:39:11.258Z,1124
2022-11-29T12:40:11.243Z,1120
2022-11-29T12:41:11.268Z,1052
2022-11-29T12:42:11.238Z,968
2022-11-29T12:43:11.220Z,936
2022-11-29T12:44:11.219Z,928
2022-11-29T12:45:11.204Z,952
2022-11-29T12:46:11.186Z,1008
2022-11-29T12:47:11.178Z,992
2022-11-29T12:48:11.170Z,904
2022-11-29T12:49:11.190Z,844
2022-11-29T12:50:11.150Z,816
2022-11-29T12:51:11.146Z,828
2022-11-29T12:52:11.118Z,848
2022-11-29T12:53:11.153Z,864
2022-11-29T12:54:11.116Z,896
2022-11-29T12:55:11.085Z,920
2022-11-29T12:56:11.087Z,920
2022-11-29T12:57:11.062Z,928
2022-11-29T12:58:11.052Z,944
2022-11-29T12:59:11.049Z,968
2022-11-29T13:00:11.034Z,976
2022-11-29T13:01:11.059Z,940
2022-11-29T13:02:11.010Z,892
2022-11-29T13:03:11.028Z,876
2022-11-29T13:04:11.000Z,896
2022-11-29T13:05:10.984Z,920
2022-11-29T13:06:10.979Z,932
2022-11-29T13:07:10.977Z,948
2022-11-29T13:08:10.962Z,968
2022-11-29T13:09:10.937Z,1012
2022-11-29T13:10:10.931Z,1080
2022-11-29T13:11:10.922Z,1132
2022-11-29T13:12:10.910Z,1156
2022-11-29T13:13:10.986Z,1160
2022-11-29T13:14:10.887Z,1156
2022-11-29T13:15:10.884Z,1148
2022-11-29T13:16:10.938Z,1156
2022-11-29T13:17:10.870Z,1168
2022-11-29T13:18:10.873Z,1176
2022-11-29T13:19:10.851Z,1196
2022-11-29T13:20:10.827Z,1228
2022-11-29T13:21:10.824Z,1264
2022-11-29T13:22:10.810Z,1320
2022-11-29T13:23:10.789Z,1376
2022-11-29T13:24:10.870Z,1396
2022-11-29T13:25:10.771Z,1404
2022-11-29T13:26:10.770Z,1448
2022-11-29T13:27:10.756Z,1492
2022-11-29T13:28:10.743Z,1508
2022-11-29T13:29:10.732Z,1532
2022-11-29T13:30:10.725Z,1544
2022-11-29T13:31:10.712Z,1512
2022-11-29T13:32:10.692Z,1536
2022-11-29T13:33:10.689Z,1580
2022-11-29T13:34:10.672Z,1560
2022-11-29T13:35:10.669Z,1464
2022-11-29T13:36:10.665Z,1320
2022-11-29T13:37:10.648Z,1196
2022-11-29T13:38:10.654Z,1100
2022-11-29T13:39:10.658Z,1032
2022-11-29T13:40:10.612Z,1000
2022-11-29T13:41:10.599Z,952
2022-11-29T13:42:10.613Z,916
2022-11-29T13:43:10.594Z,840
2022-11-29T13:44:10.582Z,776
2022-11-29T13:45:10.574Z,744
2022-11-29T13:46:10.559Z,716
2022-11-29T13:47:10.546Z,720
2022-11-29T13:48:11.560Z,736
2022-11-29T13:49:10.734Z,740
2022-11-29T13:50:10.528Z,768
2022-11-29T13:51:10.495Z,772
2022-11-29T13:52:11.525Z,720
2022-11-29T13:53:10.471Z,660
2022-11-29T13:54:10.472Z,616
2022-11-29T13:55:10.452Z,568
2022-11-29T13:56:11.110Z,512